Hundvaag 1 weather for Jul 2010
Month no. 277
Obs.
Da.
Temp. Dew Point Precip. Wind
Speed
Wind gusts Cloud cover Press. Humidity Wind dir. Sunny OPT
01.07.2010 14,6 10,9 0,2 0,5 8,0 7 1020,1 84,0 112,5 1 85,0 %
02.07.2010 20,5 11,7 0,0 2,3 3,2 8 1014,0 58,0 112,5 1 95,0 %
03.07.2010 17,6 15,8 0,0 0,0 1,6 0 1014,4 89,0 202,5   72,5 %
04.07.2010 14,2 10,9 0,1 0,0 0,0 10 1017,2 81,0 292,5 1 92,5 %
05.07.2010 14,5 12,7 8,0 4,0 1,6 0 1013,0 82,0 247,5   60,0 %
06.07.2010 13,3 10,7 0,0 1,1 1,6 0 1018,9 80,0 270,0 1 67,5 %
07.07.2010 12,8 9,6 0,0 1,5 6,4 0 1019,4 77,0 135,0   67,5 %
08.07.2010 15,3 15,6 5,0 2,6 3,2 0 1015,1 90,0 157,5 1 67,5 %
09.07.2010 13,9 10,7 0,0 1,2 3,2 6 1019,8 78,0 135,0 1 82,5 %
10.07.2010 13,4 12,7 4,3 0,0 9,7 0 1015,8 95,0 157,5   65,0 %
11.07.2010 20,2 14,5 0,0 0,0 6,4 5 1012,1 70,0 180,0 1 87,5 %
12.07.2010 13,3 10,8 1,0 1,7 9,7 0 1020,3 80,0 247,5 1 67,5 %
13.07.2010 13,1 13,1 14,6 3,1 1,6 0 1009,0 90,0 270,0 1 57,5 %
14.07.2010 12,9 10,8 0,0 0,0 4,8 0 1009,4 87,0 112,5 1 67,5 %
15.07.2010 19,6 17,1 10,6 6,3 8,0 0 1000,3 78,0 112,5 1 62,5 %
16.07.2010 19,6 14,8 9,2 8,8 16,1 9 1011,2 75,0 180,0 1 82,5 %
17.07.2010 17,9 13,7 5,0 3,2 1,6 7 1014,8 74,0 135,0   87,5 %
18.07.2010 14,9 13,5 13,0 3,0 1,6 2 1020,8 85,0 202,5 1 62,5 %
19.07.2010 16,4 15,7 3,5 2,3 8,0 0 1019,5 86,0 157,5 1 67,5 %
20.07.2010 15,9 15,9 18,2 2,3 4,8 0 1015,9 87,0 112,5   55,0 %
21.07.2010 16,4 15,8 1,1 1,0 1,6 0 1011,3 85,0 90,0 1 70,0 %
22.07.2010 15,8 15,4 1,0 3,0 8,0 1 1006,8 86,0 180,0 1 72,5 %
23.07.2010 15,7 10,4 0,0 0,7 8,0 10 1019,0 69,0 0,0 1 95,0 %
24.07.2010 14,4 11,4 0,0 0,0 3,2 10 1018,5 82,0 45,0 1 92,5 %
25.07.2010 14,3 13,0 0,0 0,0 3,2 8 1014,1 92,0 112,5 1 87,5 %
26.07.2010 14,9 12,6 0,0 0,0 3,2 8 1009,0 86,0 135,0 1 87,5 %
27.07.2010 13,7 11,6 0,0 0,0 0,0 7 1012,1 87,0 180,0 1 85,0 %
28.07.2010 13,6 12,7 2,1 0,0 3,2 4 1011,7 94,0 157,5 1 77,5 %
29.07.2010 15,3 13,5 0,0 3,2 3,2 8 1007,7 89,0 67,5 1 90,0 %
30.07.2010 15,6 15,3 0,1 0,0 8,0 8 998,5 98,0 22,5   90,0 %
31.07.2010 13,6 13,1 0,3 0,0 4,8 8 1005,3 97,0 180,0   87,5 %
Avrg/Sum 15,4 13,1 97,3 1,7 4,8 4,1 1013,4 83,6 151,7 23 77,0 %